createdAt,value
2018-03-26T00:02:12.969Z,26.90
2018-03-26T00:04:40.788Z,35.77
2018-03-26T00:07:08.402Z,28.80
2018-03-26T00:09:36.091Z,33.07
2018-03-26T00:12:03.816Z,31.60
2018-03-26T00:14:31.374Z,29.80
2018-03-26T00:16:58.955Z,17.30
2018-03-26T00:19:26.657Z,20.57
2018-03-26T00:21:54.220Z,17.13
2018-03-26T00:24:22.032Z,16.33
2018-03-26T00:26:49.641Z,15.00
2018-03-26T00:29:17.214Z,15.10
2018-03-26T00:31:44.771Z,14.90
2018-03-26T00:34:12.370Z,16.13
2018-03-26T00:36:39.919Z,13.47
2018-03-26T00:39:07.736Z,13.03
2018-03-26T00:41:35.299Z,15.30
2018-03-26T00:44:03.074Z,19.67
2018-03-26T00:46:30.645Z,40.20
2018-03-26T00:48:58.205Z,48.10
2018-03-26T00:51:25.774Z,47.50
2018-03-26T00:53:53.511Z,34.40
2018-03-26T00:56:21.070Z,22.97
2018-03-26T00:58:48.637Z,19.57
2018-03-26T01:01:16.194Z,19.43
2018-03-26T01:03:44.021Z,17.33
2018-03-26T01:06:11.836Z,20.47
2018-03-26T01:08:39.418Z,16.33
2018-03-26T01:11:07.003Z,22.60
2018-03-26T01:13:34.562Z,21.80
2018-03-26T01:16:02.125Z,18.40
2018-03-26T01:18:29.686Z,53.70
2018-03-26T01:20:57.259Z,64.17
2018-03-26T01:23:24.826Z,55.33
2018-03-26T01:25:52.549Z,54.30
2018-03-26T01:28:20.109Z,51.93
2018-03-26T01:30:47.672Z,57.93
2018-03-26T01:33:15.242Z,26.93
2018-03-26T01:35:42.846Z,15.50
2018-03-26T01:38:10.414Z,14.50
2018-03-26T01:40:38.187Z,11.90
2018-03-26T01:43:05.774Z,13.53
2018-03-26T01:45:33.343Z,38.10
2018-03-26T01:48:01.143Z,40.60
2018-03-26T01:50:28.745Z,34.33
2018-03-26T01:52:56.298Z,41.50
2018-03-26T01:55:23.869Z,36.87
2018-03-26T01:57:51.421Z,29.47
2018-03-26T02:00:18.990Z,34.43
2018-03-26T02:02:46.556Z,38.33
2018-03-26T02:05:14.165Z,30.77
2018-03-26T02:07:41.788Z,33.10
2018-03-26T02:10:09.601Z,30.67
2018-03-26T02:12:37.174Z,37.03
2018-03-26T02:15:04.789Z,48.93
2018-03-26T02:17:32.450Z,61.50
2018-03-26T02:20:00.010Z,48.77
2018-03-26T02:22:27.568Z,43.97
2018-03-26T02:24:55.186Z,35.77
2018-03-26T02:27:22.923Z,35.40
2018-03-26T02:29:50.503Z,31.60
2018-03-26T02:32:18.066Z,35.07
2018-03-26T02:34:45.670Z,35.40
2018-03-26T02:37:13.497Z,27.97
2018-03-26T02:39:41.105Z,49.47
2018-03-26T02:42:08.937Z,49.53
2018-03-26T02:44:36.494Z,51.60
2018-03-26T02:47:04.268Z,47.97
2018-03-26T02:49:31.825Z,48.43
2018-03-26T02:51:59.386Z,45.13
2018-03-26T02:54:26.970Z,39.37
2018-03-26T02:56:54.522Z,30.03
2018-03-26T02:59:22.258Z,30.40
2018-03-26T03:01:49.823Z,35.73
2018-03-26T03:04:17.593Z,28.97
2018-03-26T03:06:45.203Z,24.00
2018-03-26T03:09:12.929Z,28.00
2018-03-26T03:11:40.559Z,25.10
2018-03-26T03:14:08.178Z,25.47
2018-03-26T03:16:35.983Z,25.00
2018-03-26T03:19:03.803Z,21.00
2018-03-26T03:21:31.410Z,23.67
2018-03-26T03:23:58.990Z,23.60
2018-03-26T03:26:26.588Z,21.70
2018-03-26T03:28:54.185Z,20.27
2018-03-26T03:31:21.793Z,19.20
2018-03-26T03:33:49.380Z,36.47
2018-03-26T03:36:16.958Z,48.97
2018-03-26T03:38:44.740Z,48.60
2018-03-26T03:41:12.299Z,33.30
2018-03-26T03:43:40.081Z,20.83
2018-03-26T03:46:07.810Z,21.50
2018-03-26T03:48:35.620Z,22.27
2018-03-26T03:51:03.436Z,20.60
2018-03-26T03:53:30.993Z,21.30
2018-03-26T03:55:58.657Z,24.87
2018-03-26T03:58:26.227Z,49.23
2018-03-26T04:00:54.007Z,59.80
2018-03-26T04:03:21.691Z,52.73
2018-03-26T04:05:49.408Z,56.77
2018-03-26T04:08:17.049Z,45.60
2018-03-26T04:10:44.626Z,33.37
2018-03-26T04:13:12.195Z,28.33
2018-03-26T04:15:39.753Z,27.70
2018-03-26T04:18:07.337Z,35.37
2018-03-26T04:20:34.937Z,37.37
2018-03-26T04:23:02.496Z,50.17
2018-03-26T04:25:30.076Z,48.37
2018-03-26T04:27:57.634Z,39.67
2018-03-26T04:30:25.189Z,40.70
2018-03-26T04:32:52.754Z,41.23
2018-03-26T04:35:20.313Z,48.90
2018-03-26T04:37:47.891Z,46.30
2018-03-26T04:40:15.446Z,47.80
2018-03-26T04:42:43.001Z,53.93
2018-03-26T04:45:10.577Z,65.43
2018-03-26T04:47:38.141Z,62.20
2018-03-26T04:50:05.714Z,69.80
2018-03-26T04:52:33.274Z,64.20
2018-03-26T04:55:00.840Z,64.43
2018-03-26T04:57:28.575Z,59.07
2018-03-26T04:59:56.225Z,58.80
2018-03-26T05:02:23.802Z,73.20
2018-03-26T05:04:51.378Z,178.77
2018-03-26T05:07:18.933Z,84.27
2018-03-26T05:09:46.705Z,73.20
2018-03-26T05:12:14.303Z,63.17
2018-03-26T05:14:41.981Z,55.67
2018-03-26T05:17:09.533Z,55.00
2018-03-26T05:19:37.090Z,29.97
2018-03-26T05:22:04.674Z,26.37
2018-03-26T05:24:32.411Z,25.03
2018-03-26T05:26:59.998Z,87.40
2018-03-26T05:29:27.562Z,100.83
2018-03-26T05:31:55.122Z,65.53
2018-03-26T05:34:22.843Z,60.57
2018-03-26T05:36:50.397Z,56.03
2018-03-26T05:39:18.219Z,43.83
2018-03-26T05:41:46.038Z,53.23
2018-03-26T05:44:13.856Z,64.40
2018-03-26T05:46:41.424Z,88.90
2018-03-26T05:49:09.003Z,67.93
2018-03-26T05:51:36.565Z,65.80
2018-03-26T05:54:04.326Z,85.00
2018-03-26T05:56:31.900Z,76.83
2018-03-26T05:58:59.479Z,61.50
2018-03-26T06:01:27.046Z,65.30
2018-03-26T06:03:54.659Z,64.13
2018-03-26T06:06:22.215Z,59.73
2018-03-26T06:08:49.934Z,58.63
2018-03-26T06:11:17.753Z,119.90
2018-03-26T06:13:45.571Z,52.90
2018-03-26T06:16:13.150Z,58.00
2018-03-26T06:18:40.750Z,49.70
2018-03-26T06:21:08.525Z,52.83
2018-03-26T06:23:36.345Z,47.43
2018-03-26T06:26:03.980Z,57.57
2018-03-26T06:28:31.671Z,51.90
2018-03-26T06:30:59.283Z,50.27
2018-03-26T06:33:26.896Z,53.30
2018-03-26T06:35:54.498Z,60.20
2018-03-26T06:38:27.971Z,56.97
2018-03-26T06:40:55.609Z,62.27
2018-03-26T06:43:23.209Z,51.30
2018-03-26T06:45:50.769Z,68.67
2018-03-26T06:48:18.510Z,51.73
2018-03-26T06:50:46.138Z,48.43
2018-03-26T06:53:13.695Z,47.13
2018-03-26T06:55:41.264Z,58.17
2018-03-26T06:58:08.840Z,52.67
2018-03-26T07:00:36.615Z,61.70
2018-03-26T07:03:04.199Z,55.67
2018-03-26T07:05:31.765Z,55.37
2018-03-26T07:07:59.467Z,61.43
2018-03-26T07:10:27.042Z,80.10
2018-03-26T07:12:54.598Z,83.50
2018-03-26T07:15:22.165Z,50.57
2018-03-26T07:17:49.927Z,51.40
2018-03-26T07:20:17.519Z,55.67
2018-03-26T07:22:45.107Z,56.90
2018-03-26T07:25:12.911Z,65.17
2018-03-26T07:27:40.470Z,69.90
2018-03-26T07:30:08.033Z,98.43
2018-03-26T07:32:35.646Z,97.47
2018-03-26T07:35:03.482Z,65.37
2018-03-26T07:37:31.059Z,71.93
2018-03-26T07:39:58.820Z,74.30
2018-03-26T07:42:26.430Z,65.13
2018-03-26T07:44:54.028Z,77.93
2018-03-26T07:47:21.607Z,76.63
2018-03-26T07:49:49.221Z,71.57
2018-03-26T07:52:16.786Z,71.67
2018-03-26T07:54:44.524Z,70.50
2018-03-26T07:57:12.082Z,73.80
2018-03-26T07:59:39.694Z,65.93
2018-03-26T08:02:07.480Z,69.70
2018-03-26T08:04:35.034Z,68.07
2018-03-26T08:07:02.606Z,65.90
2018-03-26T08:09:30.217Z,70.90
2018-03-26T08:11:57.851Z,72.00
2018-03-26T08:14:25.567Z,65.90
2018-03-26T08:16:53.200Z,69.10
2018-03-26T08:19:20.801Z,66.53
2018-03-26T08:21:48.374Z,66.37
2018-03-26T08:24:15.950Z,66.17
2018-03-26T08:26:43.759Z,81.07
2018-03-26T08:29:11.575Z,74.23
2018-03-26T08:31:39.149Z,75.23
2018-03-26T08:34:06.808Z,77.63
2018-03-26T08:36:34.383Z,103.97
2018-03-26T08:39:02.032Z,92.03
2018-03-26T08:41:29.602Z,80.13
2018-03-26T08:43:57.194Z,76.37
2018-03-26T08:46:24.797Z,72.97
2018-03-26T08:48:52.369Z,80.63
2018-03-26T08:51:19.990Z,74.13
2018-03-26T08:53:47.755Z,72.73
2018-03-26T08:56:15.581Z,76.83
2018-03-26T08:58:43.158Z,74.67
2018-03-26T09:01:10.733Z,66.20
2018-03-26T09:03:38.374Z,66.23
2018-03-26T09:06:06.144Z,62.30
2018-03-26T09:08:33.868Z,78.70
2018-03-26T09:11:01.427Z,72.60
2018-03-26T09:13:28.982Z,58.73
2018-03-26T09:15:56.586Z,67.13
2018-03-26T09:18:24.154Z,62.27
2018-03-26T09:20:51.021Z,61.17
2018-03-26T09:23:18.935Z,64.00
2018-03-26T09:25:46.542Z,74.10
2018-03-26T09:28:14.106Z,63.63
2018-03-26T09:30:41.924Z,64.63
2018-03-26T09:33:09.495Z,61.93
2018-03-26T09:35:37.150Z,61.40
2018-03-26T09:38:04.790Z,68.30
2018-03-26T09:40:32.544Z,58.57
2018-03-26T09:43:00.190Z,60.97
2018-03-26T09:45:27.929Z,68.50
2018-03-26T09:47:55.753Z,62.77
2018-03-26T09:50:23.458Z,61.80
2018-03-26T09:52:51.031Z,63.87
2018-03-26T09:55:18.717Z,81.50
2018-03-26T09:57:46.288Z,69.17
2018-03-26T10:00:14.129Z,72.17
2018-03-26T10:02:41.856Z,84.83
2018-03-26T10:05:09.442Z,87.00
2018-03-26T10:07:37.151Z,68.67
2018-03-26T10:10:04.758Z,90.30
2018-03-26T10:12:32.513Z,76.50
2018-03-26T10:15:00.066Z,72.57
2018-03-26T10:17:27.758Z,70.03
2018-03-26T10:19:55.367Z,80.93
2018-03-26T10:22:22.939Z,75.13
2018-03-26T10:24:50.718Z,59.80
2018-03-26T10:27:18.287Z,60.53
2018-03-26T10:29:45.853Z,59.07
2018-03-26T10:32:13.414Z,59.77
2018-03-26T10:34:41.030Z,56.83
2018-03-26T10:37:08.601Z,61.77
2018-03-26T10:39:36.326Z,131.33
2018-03-26T10:42:04.105Z,63.67
2018-03-26T10:44:31.669Z,83.80
2018-03-26T10:46:59.256Z,61.87
2018-03-26T10:49:26.954Z,71.77
2018-03-26T10:51:54.606Z,56.77
2018-03-26T10:54:22.170Z,115.87
2018-03-26T10:56:49.741Z,84.77
2018-03-26T10:59:17.318Z,186.67
2018-03-26T11:01:44.875Z,54.13
2018-03-26T11:04:12.696Z,53.87
2018-03-26T11:06:40.294Z,53.37
2018-03-26T11:09:08.032Z,60.47
2018-03-26T11:11:35.628Z,50.73
2018-03-26T11:14:03.476Z,51.20
2018-03-26T11:16:31.296Z,64.30
2018-03-26T11:18:58.882Z,56.83
2018-03-26T11:21:26.732Z,61.07
2018-03-26T11:23:54.549Z,56.97
2018-03-26T11:26:22.239Z,51.53
2018-03-26T11:28:49.825Z,68.10
2018-03-26T11:31:17.414Z,83.10
2018-03-26T11:33:45.015Z,66.93
2018-03-26T11:36:12.647Z,62.60
2018-03-26T11:38:40.529Z,100.33
2018-03-26T11:41:08.172Z,53.83
2018-03-26T11:43:35.961Z,49.93
2018-03-26T11:46:03.703Z,50.77
2018-03-26T11:48:31.297Z,49.70
2018-03-26T11:50:58.954Z,47.07
2018-03-26T11:53:26.560Z,51.57
2018-03-26T11:55:54.150Z,54.37
2018-03-26T11:58:21.746Z,54.73
2018-03-26T12:00:49.350Z,53.70
2018-03-26T12:03:17.118Z,55.43
2018-03-26T12:05:44.719Z,64.13
2018-03-26T12:08:12.366Z,75.57
2018-03-26T12:10:40.191Z,74.07
2018-03-26T12:13:07.820Z,67.17
2018-03-26T12:15:35.514Z,122.33
2018-03-26T12:18:03.102Z,84.93
2018-03-26T12:20:42.529Z,63.70
2018-03-26T12:23:21.855Z,59.63
2018-03-26T12:25:49.519Z,59.93
2018-03-26T12:28:29.102Z,72.77
2018-03-26T12:30:56.754Z,66.93
2018-03-26T12:33:24.342Z,60.77
2018-03-26T12:35:55.789Z,57.23
2018-03-26T12:38:23.383Z,57.27
2018-03-26T12:40:58.918Z,57.70
2018-03-26T12:43:26.509Z,56.50
2018-03-26T12:46:06.049Z,57.57
2018-03-26T12:48:33.649Z,64.87
2018-03-26T12:51:13.037Z,59.67
2018-03-26T12:53:40.816Z,60.27
2018-03-26T12:56:08.442Z,59.63
2018-03-26T12:58:50.823Z,57.17
2018-03-26T13:01:30.292Z,53.67
2018-03-26T13:03:58.110Z,61.37
2018-03-26T13:06:25.929Z,58.43
2018-03-26T13:08:53.582Z,65.93
2018-03-26T13:11:21.176Z,60.07
2018-03-26T13:13:48.811Z,54.47
2018-03-26T13:16:16.408Z,61.23
2018-03-26T13:18:44.014Z,65.97
2018-03-26T13:21:11.680Z,51.67
2018-03-26T13:23:39.257Z,49.60
2018-03-26T13:26:06.957Z,62.87
2018-03-26T13:28:34.566Z,134.43
2018-03-26T13:31:02.150Z,67.40
2018-03-26T13:33:29.839Z,73.70
2018-03-26T13:35:57.481Z,67.73
2018-03-26T13:38:25.072Z,72.97
2018-03-26T13:40:52.879Z,74.33
2018-03-26T13:43:20.697Z,72.60
2018-03-26T13:45:48.316Z,87.67
2018-03-26T13:48:15.909Z,71.67
2018-03-26T13:50:43.538Z,67.97
2018-03-26T13:53:11.376Z,84.20
2018-03-26T13:55:39.189Z,77.60
2018-03-26T13:58:07.011Z,73.70
2018-03-26T14:00:34.661Z,71.67
2018-03-26T14:03:02.274Z,73.10
2018-03-26T14:05:29.898Z,83.97
2018-03-26T14:07:57.649Z,76.20
2018-03-26T14:10:36.998Z,78.17
2018-03-26T14:16:20.127Z,79.90
2018-03-26T14:18:47.960Z,72.30
2018-03-26T14:21:15.658Z,75.43
2018-03-26T14:23:43.419Z,74.97
2018-03-26T14:26:11.076Z,71.93
2018-03-26T14:28:38.833Z,73.30
2018-03-26T14:31:06.655Z,72.00
2018-03-26T14:33:34.474Z,77.17
2018-03-26T14:36:02.293Z,83.63
2018-03-26T14:38:30.107Z,76.70
2018-03-26T14:40:57.816Z,78.30
2018-03-26T14:43:25.611Z,65.93
2018-03-26T14:45:53.210Z,72.17
2018-03-26T14:48:20.867Z,79.47
2018-03-26T14:50:48.465Z,64.50
2018-03-26T14:53:16.062Z,71.97
2018-03-26T14:55:43.667Z,72.47
2018-03-26T14:58:11.259Z,82.80
2018-03-26T15:00:39.069Z,86.23
2018-03-26T15:03:06.866Z,74.67
2018-03-26T15:05:34.517Z,97.47
2018-03-26T15:08:02.111Z,102.57
2018-03-26T15:10:29.697Z,85.43
2018-03-26T15:12:57.294Z,85.97
2018-03-26T15:15:24.887Z,78.77
2018-03-26T15:17:52.488Z,91.63
2018-03-26T15:20:20.086Z,66.20
2018-03-26T15:22:47.931Z,74.63
2018-03-26T15:25:15.520Z,73.07
2018-03-26T15:27:43.110Z,105.33
2018-03-26T15:30:10.811Z,102.70
2018-03-26T15:32:38.607Z,80.27
2018-03-26T15:35:06.422Z,74.00
2018-03-26T15:37:34.242Z,93.17
2018-03-26T15:40:01.948Z,90.90
2018-03-26T15:42:29.777Z,101.97
2018-03-26T15:44:57.595Z,74.73
2018-03-26T15:47:25.199Z,99.40
2018-03-26T15:49:53.032Z,110.43
2018-03-26T15:52:20.852Z,103.20
2018-03-26T15:54:48.462Z,143.23
2018-03-26T15:57:16.106Z,112.10
2018-03-26T15:59:43.864Z,147.40
2018-03-26T16:02:10.889Z,118.00
2018-03-26T16:04:38.534Z,152.80
2018-03-26T16:07:06.133Z,76.10
2018-03-26T16:09:33.748Z,123.60
2018-03-26T16:12:01.346Z,115.90
2018-03-26T16:14:29.330Z,103.63
2018-03-26T16:16:57.133Z,78.00
2018-03-26T16:19:24.919Z,97.30
2018-03-26T16:21:52.765Z,75.73
2018-03-26T16:24:20.363Z,94.03
2018-03-26T16:26:47.981Z,92.07
2018-03-26T16:29:15.611Z,68.97
2018-03-26T16:31:43.259Z,72.37
2018-03-26T16:34:10.858Z,72.60
2018-03-26T16:36:38.674Z,103.97
2018-03-26T16:39:06.558Z,73.93
2018-03-26T16:41:45.862Z,73.27
2018-03-26T16:44:13.490Z,76.63
2018-03-26T16:46:41.101Z,67.37
2018-03-26T16:49:09.005Z,66.50
2018-03-26T16:51:36.742Z,69.77
2018-03-26T16:54:04.365Z,64.10
2018-03-26T16:56:32.161Z,75.37
2018-03-26T16:58:59.754Z,68.97
2018-03-26T17:01:27.359Z,75.10
2018-03-26T17:03:54.954Z,85.33
2018-03-26T17:06:22.606Z,78.20
2018-03-26T17:08:50.195Z,71.20
2018-03-26T17:11:17.784Z,83.00
2018-03-26T17:13:45.377Z,93.87
2018-03-26T17:16:13.203Z,90.70
2018-03-26T17:18:41.022Z,150.83
2018-03-26T17:21:08.725Z,92.10
2018-03-26T17:23:36.475Z,104.53
2018-03-26T17:26:04.132Z,80.20
2018-03-26T17:28:31.896Z,93.63
2018-03-26T17:30:59.503Z,63.77
2018-03-26T17:33:27.096Z,58.50
2018-03-26T17:35:54.949Z,63.90
2018-03-26T17:38:22.538Z,68.53
2018-03-26T17:40:50.197Z,74.50
2018-03-26T17:43:17.971Z,71.40
2018-03-26T17:45:45.720Z,63.50
2018-03-26T17:48:13.502Z,63.37
2018-03-26T17:50:41.258Z,74.33
2018-03-26T17:53:09.077Z,65.70
2018-03-26T17:55:36.895Z,66.77
2018-03-26T17:58:04.562Z,88.63
2018-03-26T18:00:32.174Z,73.20
2018-03-26T18:02:59.776Z,76.00
2018-03-26T18:05:27.382Z,96.37
2018-03-26T18:07:55.158Z,83.50
2018-03-26T18:10:23.015Z,85.53
2018-03-26T18:12:50.703Z,102.17
2018-03-26T18:15:18.388Z,96.37
2018-03-26T18:17:45.992Z,88.37
2018-03-26T18:20:14.125Z,86.50
2018-03-26T18:22:41.995Z,87.03
2018-03-26T18:25:09.581Z,100.03
2018-03-26T18:27:37.191Z,100.70
2018-03-26T18:30:04.864Z,84.83
2018-03-26T18:32:32.767Z,80.10
2018-03-26T18:35:00.588Z,97.83
2018-03-26T18:37:28.188Z,75.00
2018-03-26T18:39:55.783Z,80.30
2018-03-26T18:42:23.378Z,86.67
2018-03-26T18:44:51.158Z,90.13
2018-03-26T18:47:18.978Z,82.10
2018-03-26T18:49:46.675Z,106.63
2018-03-26T18:52:14.258Z,96.90
2018-03-26T18:54:41.993Z,107.43
2018-03-26T18:57:09.607Z,97.17
2018-03-26T18:59:37.215Z,89.13
2018-03-26T19:02:04.826Z,91.17
2018-03-26T19:04:32.420Z,85.27
2018-03-26T19:07:00.198Z,86.40
2018-03-26T19:09:27.774Z,85.77
2018-03-26T19:11:56.271Z,97.50
2018-03-26T19:14:24.047Z,105.83
2018-03-26T19:16:51.673Z,98.10
2018-03-26T19:19:19.513Z,78.43
2018-03-26T19:21:47.114Z,90.73
2018-03-26T19:24:14.770Z,113.30
2018-03-26T19:26:42.568Z,101.37
2018-03-26T19:29:10.170Z,115.27
2018-03-26T19:31:37.782Z,120.23
2018-03-26T19:34:05.374Z,93.40
2018-03-26T19:36:32.970Z,84.87
2018-03-26T19:39:00.574Z,88.77
2018-03-26T19:41:28.288Z,122.83
2018-03-26T19:43:55.879Z,97.10
2018-03-26T19:46:23.711Z,99.40
2018-03-26T19:48:51.537Z,98.03
2018-03-26T19:51:19.127Z,91.90
2018-03-26T19:53:46.783Z,103.17
2018-03-26T19:56:14.586Z,100.37
2018-03-26T19:58:42.251Z,93.07
2018-03-26T20:01:09.911Z,95.17
2018-03-26T20:03:37.744Z,108.70
2018-03-26T20:06:05.540Z,123.77
2018-03-26T20:08:33.131Z,106.03
2018-03-26T20:11:00.734Z,120.37
2018-03-26T20:13:28.330Z,102.37
2018-03-26T20:15:55.928Z,95.70
2018-03-26T20:18:23.522Z,92.33
2018-03-26T20:20:51.535Z,129.10
2018-03-26T20:23:19.232Z,230.93
2018-03-26T20:25:47.002Z,491.33
2018-03-26T20:28:14.669Z,463.17
2018-03-26T20:30:42.274Z,136.90
2018-03-26T20:33:09.865Z,124.57
2018-03-26T20:35:37.486Z,152.10
2018-03-26T20:38:05.091Z,147.87
2018-03-26T20:40:32.753Z,114.07
2018-03-26T20:43:00.349Z,108.03
2018-03-26T20:45:27.937Z,115.60
2018-03-26T20:47:55.532Z,98.53
2018-03-26T20:50:23.143Z,94.43
2018-03-26T20:52:50.787Z,100.63
2018-03-26T20:55:18.616Z,96.30
2018-03-26T20:57:46.273Z,107.47
2018-03-26T21:00:14.154Z,97.80
2018-03-26T21:02:41.741Z,104.87
2018-03-26T21:05:09.589Z,92.63
2018-03-26T21:07:37.182Z,95.73
2018-03-26T21:10:04.891Z,94.70
2018-03-26T21:12:32.643Z,97.00
2018-03-26T21:15:00.252Z,101.53
2018-03-26T21:17:27.885Z,93.50
2018-03-26T21:19:55.487Z,109.53
2018-03-26T21:22:23.166Z,107.47
2018-03-26T21:24:50.749Z,114.90
2018-03-26T21:27:18.349Z,112.47
2018-03-26T21:29:46.050Z,99.57
2018-03-26T21:32:13.672Z,104.20
2018-03-26T21:34:41.342Z,105.47
2018-03-26T21:37:08.944Z,110.00
2018-03-26T21:39:36.546Z,99.03
2018-03-26T21:42:04.397Z,107.60
2018-03-26T21:44:32.010Z,95.57
2018-03-26T21:46:59.796Z,98.43
2018-03-26T21:49:27.614Z,93.13
2018-03-26T21:51:55.266Z,102.47
2018-03-26T21:54:22.866Z,98.73
2018-03-26T21:56:50.458Z,105.17
2018-03-26T21:59:18.285Z,96.63
2018-03-26T22:01:46.105Z,112.00
2018-03-26T22:04:13.923Z,100.13
2018-03-26T22:06:41.555Z,98.27
2018-03-26T22:09:09.214Z,100.63
2018-03-26T22:11:37.042Z,110.30
2018-03-26T22:14:04.673Z,117.93
2018-03-26T22:16:32.269Z,115.70
2018-03-26T22:18:59.872Z,108.37
2018-03-26T22:21:27.469Z,124.43
2018-03-26T22:23:55.247Z,103.07
2018-03-26T22:26:22.939Z,109.10
2018-03-26T22:28:50.548Z,105.23
2018-03-26T22:31:18.297Z,114.47
2018-03-26T22:33:46.139Z,125.80
2018-03-26T22:36:13.844Z,116.47
2018-03-26T22:38:41.677Z,124.00
2018-03-26T22:41:09.266Z,122.00
2018-03-26T22:43:36.906Z,126.03
2018-03-26T22:46:04.696Z,120.50
2018-03-26T22:48:32.453Z,127.67
2018-03-26T22:51:00.226Z,127.20
2018-03-26T22:53:27.805Z,128.73
2018-03-26T22:55:55.501Z,125.17
2018-03-26T22:58:23.090Z,113.70
2018-03-26T23:00:50.753Z,123.13
2018-03-26T23:03:18.342Z,116.80
2018-03-26T23:05:45.933Z,119.07
2018-03-26T23:08:13.549Z,113.00
2018-03-26T23:10:41.134Z,123.90
2018-03-26T23:13:08.746Z,119.90
2018-03-26T23:15:36.326Z,104.57
2018-03-26T23:18:04.017Z,119.80
2018-03-26T23:20:31.608Z,121.40
2018-03-26T23:22:59.285Z,119.53
2018-03-26T23:25:27.118Z,114.23
2018-03-26T23:27:54.702Z,121.40
2018-03-26T23:30:22.306Z,128.30
2018-03-26T23:32:50.051Z,138.60
2018-03-26T23:35:17.693Z,122.37
2018-03-26T23:37:45.281Z,130.30
2018-03-26T23:40:12.866Z,134.70
2018-03-26T23:42:40.529Z,129.73
2018-03-26T23:45:08.102Z,142.00
2018-03-26T23:47:35.878Z,138.70
2018-03-26T23:50:03.664Z,138.70
2018-03-26T23:52:31.330Z,132.00
2018-03-26T23:54:58.910Z,128.43
2018-03-26T23:57:26.497Z,140.33
2018-03-26T23:59:54.230Z,145.37
